Airfield :
LOGIN :

Register | Disclaimer

   EN    FR    IT 

 










Legend :    VFR   Marginal VFR   IFR   Intensive IFR   Very Intensive IFR
Visi :
Ceiling :
>= 8 km
>= 3000ft
5 to 8 km
1000 to 3000 ft
1500m to 5 km
500 to 1000 ft
800 to 1500m
200 to 500 ft
< 800m
< 200 ft
Symbols :   Thunderstorms  Fog  Heavy snow  Heavy precipitations  Wind > 20 kt
SIGMETs :     Misc.  Thunderstorms  Icing  Turbulence  Mountain Waves  Volcanic Ashes






- Airport Elevation : 978 ft
- IATA code : LNZ


LOWL - Linz

CURRENT METAR :
  • 221650Z VRB02KT 3100 BR OVC003 12/12 Q1023 BECMG 2000 OVC002

EXPIRED METARs :
  • 221620Z 22002KT 3500 BR OVC003 12/12 Q1023 BECMG 2000 OVC002
  • 221550Z VRB02KT 3300 BR BKN004 12/12 Q1023 BECMG 2000
  • 221520Z 24003KT 210V280 4000 BR FEW003 BKN005 13/12 Q1023 BECMG BKN004
  • 221450Z VRB01KT 4400 BR FEW003 BKN005 13/12 Q1022 NOSIG
  • 221420Z VRB02KT 5000 BR FEW003 BKN005 13/12 Q1022 TEMPO 4000 BKN006

TAF AMD TAF LOWL
Valid from the 22 at 16:00 until the 23 at 12:00 UTC


221623Z 2216/2312 VRB02KT 4000 BR BKN004 TX15/2312Z TN11/2304Z
BECMG 2216/2219 09003KT 1200 BR OVC002
TEMPO 2220/2307 0100 FG VV001
BECMG 2310/2312 10010KT 8000 NSW SCT010



MET'MAP, your aeronautical weather chart ! - Copyright ORBIFLY December 2007 - Disclaimer

ORBIFLY MET'MAP TEAM :

Programming & Development : Alexandra Zaïnal
Concept & Development : Baudouin d'Aumeries
Co-Development & Prog : Marc-Olivier Méhu
Technical & hardware support : Manuel Goepfert

Contact : metmap@orbifly.com




SOURCES & CREDITS :

   NOAA